createdAt,value
2017-12-14T00:00:03.511Z,3.00
2017-12-14T00:00:36.519Z,3.00
2017-12-14T00:01:10.206Z,3.00
2017-12-14T00:01:43.871Z,3.00
2017-12-14T00:02:17.526Z,3.00
2017-12-14T00:02:51.939Z,3.00
2017-12-14T00:03:25.599Z,3.00
2017-12-14T00:03:59.266Z,3.00
2017-12-14T00:04:32.939Z,2.90
2017-12-14T00:05:06.606Z,3.00
2017-12-14T00:05:40.268Z,2.90
2017-12-14T00:06:14.724Z,3.00
2017-12-14T00:06:48.405Z,3.00
2017-12-14T00:07:22.066Z,2.90
2017-12-14T00:07:56.524Z,3.00
2017-12-14T00:08:30.366Z,3.00
2017-12-14T00:09:04.208Z,3.00
2017-12-14T00:09:37.887Z,3.00
2017-12-14T00:10:11.213Z,3.00
2017-12-14T00:10:45.637Z,2.90
2017-12-14T00:11:20.108Z,2.90
2017-12-14T00:11:53.752Z,2.90
2017-12-14T00:12:27.410Z,2.90
2017-12-14T00:13:01.071Z,2.90
2017-12-14T00:13:34.730Z,2.90
2017-12-14T00:14:08.387Z,3.00
2017-12-14T00:14:42.811Z,3.00
2017-12-14T00:15:16.489Z,3.00
2017-12-14T00:15:50.910Z,3.00
2017-12-14T00:16:24.611Z,2.90
2017-12-14T00:16:58.272Z,3.00
2017-12-14T00:17:32.696Z,3.00
2017-12-14T00:18:06.346Z,2.90
2017-12-14T00:18:40.004Z,3.00
2017-12-14T00:19:13.662Z,3.00
2017-12-14T00:19:47.364Z,3.00
2017-12-14T00:20:21.018Z,3.00
2017-12-14T00:20:55.459Z,3.00
2017-12-14T00:21:29.134Z,3.00
2017-12-14T00:22:02.795Z,3.00
2017-12-14T00:22:36.454Z,3.00
2017-12-14T00:23:10.111Z,3.00
2017-12-14T00:23:43.770Z,3.00
2017-12-14T00:24:16.752Z,3.00
2017-12-14T00:24:50.486Z,3.00
2017-12-14T00:25:24.138Z,3.00
2017-12-14T00:25:58.554Z,3.00
2017-12-14T00:26:32.229Z,3.00
2017-12-14T00:27:06.655Z,3.00
2017-12-14T00:27:40.314Z,3.00
2017-12-14T00:28:13.970Z,3.00
2017-12-14T00:28:47.622Z,3.00
2017-12-14T00:29:21.282Z,3.00
2017-12-14T00:29:55.706Z,3.00
2017-12-14T00:30:30.141Z,3.00
2017-12-14T00:31:03.800Z,3.00
2017-12-14T00:31:38.238Z,3.00
2017-12-14T00:32:11.983Z,3.00
2017-12-14T00:32:45.638Z,3.00
2017-12-14T00:33:19.304Z,3.00
2017-12-14T00:33:52.963Z,3.00
2017-12-14T00:34:27.381Z,3.00
2017-12-14T00:35:01.042Z,3.00
2017-12-14T00:35:35.471Z,3.00
2017-12-14T00:36:09.890Z,3.00
2017-12-14T00:36:43.599Z,3.00
2017-12-14T00:37:17.252Z,3.00
2017-12-14T00:37:51.663Z,3.00
2017-12-14T00:38:26.103Z,3.00
2017-12-14T00:38:59.755Z,3.00
2017-12-14T00:39:34.174Z,3.00
2017-12-14T00:40:08.585Z,3.00
2017-12-14T00:40:42.989Z,3.00
2017-12-14T00:41:16.647Z,3.00
2017-12-14T00:41:49.982Z,3.00
2017-12-14T00:42:23.640Z,3.00
2017-12-14T00:42:58.059Z,3.00
2017-12-14T00:43:31.379Z,3.00
2017-12-14T00:44:05.027Z,3.00
2017-12-14T00:44:39.471Z,3.00
2017-12-14T00:45:13.134Z,3.00
2017-12-14T00:45:46.806Z,3.00
2017-12-14T00:46:21.227Z,3.00
2017-12-14T00:46:54.906Z,3.00
2017-12-14T00:47:28.975Z,3.00
2017-12-14T00:48:02.667Z,3.00
2017-12-14T00:48:36.758Z,3.00
2017-12-14T00:49:10.411Z,3.00
2017-12-14T00:49:44.073Z,3.00
2017-12-14T00:50:17.733Z,3.00
2017-12-14T00:50:50.711Z,3.00
2017-12-14T00:51:23.695Z,3.00
2017-12-14T00:51:57.804Z,3.00
2017-12-14T00:52:31.119Z,3.00
2017-12-14T00:53:04.767Z,3.00
2017-12-14T00:53:39.197Z,3.00
2017-12-14T00:54:12.851Z,3.00
2017-12-14T00:54:46.539Z,3.00
2017-12-14T00:55:20.203Z,3.00
2017-12-14T00:55:53.843Z,3.00
2017-12-14T00:56:27.490Z,3.00
2017-12-14T00:57:01.186Z,3.00
2017-12-14T00:57:34.832Z,3.00
2017-12-14T00:58:08.490Z,3.00
2017-12-14T00:58:42.963Z,3.00
2017-12-14T00:59:16.655Z,3.00
2017-12-14T00:59:50.317Z,3.10
2017-12-14T01:00:23.329Z,3.10
2017-12-14T01:00:56.976Z,3.10
2017-12-14T01:01:29.974Z,3.10
2017-12-14T01:02:03.336Z,3.10
2017-12-14T01:02:36.986Z,3.10
2017-12-14T01:03:11.410Z,3.10
2017-12-14T01:03:45.074Z,3.10
2017-12-14T01:04:19.832Z,3.10
2017-12-14T01:04:53.477Z,3.10
2017-12-14T01:05:27.119Z,3.10
2017-12-14T01:06:00.153Z,3.10
2017-12-14T01:06:34.561Z,3.10
2017-12-14T01:07:09.020Z,3.10
2017-12-14T01:07:42.697Z,3.10
2017-12-14T01:08:16.351Z,3.10
2017-12-14T01:08:50.774Z,3.10
2017-12-14T01:09:24.525Z,3.10
2017-12-14T01:09:58.165Z,3.10
2017-12-14T01:10:31.810Z,3.10
2017-12-14T01:11:05.512Z,3.10
2017-12-14T01:11:39.295Z,3.10
2017-12-14T01:12:12.974Z,3.10
2017-12-14T01:12:46.639Z,3.10
2017-12-14T01:13:20.289Z,3.10
2017-12-14T01:13:53.927Z,3.10
2017-12-14T01:14:27.605Z,3.10
2017-12-14T01:15:01.107Z,3.10
2017-12-14T01:15:34.762Z,3.10
2017-12-14T01:16:08.402Z,3.10
2017-12-14T01:16:42.055Z,3.10
2017-12-14T01:17:15.743Z,3.10
2017-12-14T01:17:49.386Z,3.10
2017-12-14T01:18:23.794Z,3.10
2017-12-14T01:18:58.215Z,3.10
2017-12-14T01:19:31.862Z,3.10
2017-12-14T01:20:05.510Z,3.20
2017-12-14T01:20:39.169Z,3.10
2017-12-14T01:21:12.843Z,3.10
2017-12-14T01:21:47.339Z,3.10
2017-12-14T01:22:21.002Z,3.10
2017-12-14T01:22:54.682Z,3.10
2017-12-14T01:23:28.335Z,3.10
2017-12-14T01:24:01.991Z,3.10
2017-12-14T01:24:35.648Z,3.10
2017-12-14T01:25:09.311Z,3.10
2017-12-14T01:25:42.990Z,3.10
2017-12-14T01:26:17.405Z,3.10
2017-12-14T01:26:51.059Z,3.10
2017-12-14T01:27:25.519Z,3.10
2017-12-14T01:27:59.159Z,3.10
2017-12-14T01:28:32.822Z,3.10
2017-12-14T01:29:06.473Z,3.10
2017-12-14T01:29:40.128Z,3.10
2017-12-14T01:30:13.887Z,3.10
2017-12-14T01:30:47.554Z,3.10
2017-12-14T01:31:21.202Z,3.10
2017-12-14T01:31:55.642Z,3.10
2017-12-14T01:32:29.340Z,3.10
2017-12-14T01:33:02.985Z,3.20
2017-12-14T01:33:37.407Z,3.20
2017-12-14T01:34:11.823Z,3.20
2017-12-14T01:34:45.471Z,3.20
2017-12-14T01:35:19.131Z,3.20
2017-12-14T01:35:52.785Z,3.20
2017-12-14T01:36:26.440Z,3.20
2017-12-14T01:37:00.099Z,3.20
2017-12-14T01:37:33.767Z,3.20
2017-12-14T01:38:07.431Z,3.20
2017-12-14T01:38:41.855Z,3.20
2017-12-14T01:39:15.514Z,3.20
2017-12-14T01:39:49.166Z,3.20
2017-12-14T01:40:22.857Z,3.20
2017-12-14T01:40:56.528Z,3.20
2017-12-14T01:41:30.175Z,3.20
2017-12-14T01:42:03.823Z,3.20
2017-12-14T01:42:37.519Z,3.20
2017-12-14T01:43:11.169Z,3.20
2017-12-14T01:43:44.826Z,3.20
2017-12-14T01:44:18.474Z,3.20
2017-12-14T01:44:52.128Z,3.20
2017-12-14T01:45:26.547Z,3.20
2017-12-14T01:46:00.219Z,3.20
2017-12-14T01:46:34.649Z,3.20
2017-12-14T01:47:08.299Z,3.20
2017-12-14T01:47:42.783Z,3.20
2017-12-14T01:48:16.438Z,3.20
2017-12-14T01:48:50.105Z,3.20
2017-12-14T01:49:23.755Z,3.20
2017-12-14T01:49:57.406Z,3.20
2017-12-14T01:50:31.053Z,3.20
2017-12-14T01:51:04.703Z,3.20
2017-12-14T01:51:38.356Z,3.20
2017-12-14T01:52:12.021Z,3.20
2017-12-14T01:52:45.696Z,3.20
2017-12-14T01:53:19.353Z,3.20
2017-12-14T01:53:53.002Z,3.20
2017-12-14T01:54:27.429Z,3.20
2017-12-14T01:55:00.428Z,3.20
2017-12-14T01:55:34.087Z,3.20
2017-12-14T01:56:07.747Z,3.20
2017-12-14T01:56:41.400Z,3.20
2017-12-14T01:57:14.802Z,3.20
2017-12-14T01:57:48.478Z,3.20
2017-12-14T01:58:22.136Z,3.20
2017-12-14T01:58:55.803Z,3.20
2017-12-14T01:59:30.238Z,3.20
2017-12-14T02:00:03.882Z,3.20
2017-12-14T02:00:36.870Z,3.20
2017-12-14T02:01:11.288Z,3.20
2017-12-14T02:01:45.694Z,3.20
2017-12-14T02:02:19.350Z,3.20
2017-12-14T02:02:53.048Z,3.20
2017-12-14T02:03:26.697Z,3.20
2017-12-14T02:04:00.366Z,3.20
2017-12-14T02:04:34.026Z,3.20
2017-12-14T02:05:08.454Z,3.20
2017-12-14T02:05:42.108Z,3.20
2017-12-14T02:06:15.430Z,3.20
2017-12-14T02:06:49.086Z,3.20
2017-12-14T02:07:22.739Z,3.20
2017-12-14T02:07:56.426Z,3.20
2017-12-14T02:08:30.086Z,3.20
2017-12-14T02:09:03.215Z,3.20
2017-12-14T02:09:36.860Z,3.20
2017-12-14T02:10:10.518Z,3.20
2017-12-14T02:10:44.933Z,3.20
2017-12-14T02:11:19.338Z,3.20
2017-12-14T02:11:53.746Z,3.20
2017-12-14T02:12:28.159Z,3.20
2017-12-14T02:13:02.604Z,3.20
2017-12-14T02:13:36.258Z,3.20
2017-12-14T02:14:10.679Z,3.20
2017-12-14T02:14:44.334Z,3.20
2017-12-14T02:15:18.746Z,3.20
2017-12-14T02:15:53.183Z,3.20
2017-12-14T02:16:26.837Z,3.20
2017-12-14T02:17:00.480Z,3.20
2017-12-14T02:17:34.138Z,3.20
2017-12-14T02:18:07.842Z,3.20
2017-12-14T02:18:41.491Z,3.20
2017-12-14T02:19:15.150Z,3.20
2017-12-14T02:19:48.983Z,3.20
2017-12-14T02:20:23.390Z,3.20
2017-12-14T02:20:57.814Z,3.20
2017-12-14T02:21:31.490Z,3.20
2017-12-14T02:22:05.899Z,3.20
2017-12-14T02:22:40.315Z,3.20
2017-12-14T02:23:14.764Z,3.20
2017-12-14T02:23:48.411Z,3.10
2017-12-14T02:24:22.830Z,3.10
2017-12-14T02:24:56.484Z,3.10
2017-12-14T02:25:30.125Z,3.10
2017-12-14T02:26:03.774Z,3.10
2017-12-14T02:26:38.202Z,3.10
2017-12-14T02:27:11.854Z,3.10
2017-12-14T02:27:45.500Z,3.10
2017-12-14T02:28:19.188Z,3.10
2017-12-14T02:28:52.827Z,3.10
2017-12-14T02:29:27.242Z,3.10
2017-12-14T02:30:01.659Z,3.10
2017-12-14T02:30:36.077Z,3.00
2017-12-14T02:31:09.718Z,3.10
2017-12-14T02:31:43.390Z,3.10
2017-12-14T02:32:17.031Z,3.00
2017-12-14T02:32:51.451Z,3.00
2017-12-14T02:33:25.118Z,3.00
2017-12-14T02:33:59.528Z,3.00
2017-12-14T02:34:34.325Z,3.00
2017-12-14T02:35:07.983Z,3.00
2017-12-14T02:35:41.622Z,3.00
2017-12-14T02:36:16.038Z,3.00
2017-12-14T02:36:50.449Z,3.00
2017-12-14T02:37:24.091Z,3.00
2017-12-14T02:37:57.737Z,3.00
2017-12-14T02:38:31.432Z,3.00
2017-12-14T02:39:04.430Z,3.00
2017-12-14T02:39:38.076Z,3.00
2017-12-14T02:40:11.725Z,2.90
2017-12-14T02:40:45.377Z,3.00
2017-12-14T02:41:19.039Z,2.90
2017-12-14T02:41:52.696Z,2.90
2017-12-14T02:42:26.359Z,2.90
2017-12-14T02:43:00.028Z,2.90
2017-12-14T02:43:33.727Z,2.90
2017-12-14T02:44:07.376Z,2.90
2017-12-14T02:44:41.798Z,2.90
2017-12-14T02:45:15.129Z,2.90
2017-12-14T02:45:48.784Z,2.90
2017-12-14T02:46:22.436Z,2.90
2017-12-14T02:46:56.851Z,2.90
2017-12-14T02:47:31.258Z,2.90
2017-12-14T02:48:05.678Z,2.90
2017-12-14T02:48:39.745Z,2.90
2017-12-14T02:49:13.420Z,2.90
2017-12-14T02:49:47.071Z,2.90
2017-12-14T02:50:20.740Z,2.90
2017-12-14T02:50:54.407Z,2.90
2017-12-14T02:51:28.835Z,2.80
2017-12-14T02:52:03.242Z,2.80
2017-12-14T02:52:36.905Z,2.80
2017-12-14T02:53:10.567Z,2.80
2017-12-14T02:53:44.587Z,2.80
2017-12-14T02:54:18.240Z,2.80
2017-12-14T02:54:51.898Z,2.80
2017-12-14T02:55:25.546Z,2.80
2017-12-14T02:55:59.212Z,2.80
2017-12-14T02:56:32.857Z,2.80
2017-12-14T02:57:06.522Z,2.80
2017-12-14T02:57:40.178Z,2.80
2017-12-14T02:58:13.910Z,2.70
2017-12-14T02:58:47.586Z,2.70
2017-12-14T02:59:21.236Z,2.70
2017-12-14T02:59:54.886Z,2.70
2017-12-14T03:00:29.317Z,2.70
2017-12-14T03:01:03.022Z,2.70
2017-12-14T03:01:36.674Z,2.70
2017-12-14T03:02:10.442Z,2.70
2017-12-14T03:02:44.091Z,2.70
2017-12-14T03:03:17.742Z,2.70
2017-12-14T03:03:52.204Z,2.60
2017-12-14T03:04:25.190Z,2.60
2017-12-14T03:04:58.835Z,2.60
2017-12-14T03:05:32.491Z,2.60
2017-12-14T03:06:05.820Z,2.60
2017-12-14T03:06:39.471Z,2.60
2017-12-14T03:07:13.111Z,2.70
2017-12-14T03:07:46.427Z,2.60
2017-12-14T03:08:20.502Z,2.60
2017-12-14T03:08:53.830Z,2.60
2017-12-14T03:09:27.906Z,2.60
2017-12-14T03:10:01.561Z,2.60
2017-12-14T03:10:34.891Z,2.60
2017-12-14T03:11:08.983Z,2.60
2017-12-14T03:11:42.636Z,2.60
2017-12-14T03:12:16.293Z,2.60
2017-12-14T03:12:49.963Z,2.60
2017-12-14T03:13:23.618Z,2.60
2017-12-14T03:13:57.303Z,2.60
2017-12-14T03:14:30.975Z,2.60
2017-12-14T03:15:04.619Z,2.60
2017-12-14T03:15:39.056Z,2.60
2017-12-14T03:16:12.717Z,2.50
2017-12-14T03:16:47.126Z,2.50
2017-12-14T03:17:20.775Z,2.50
2017-12-14T03:17:54.435Z,2.50
2017-12-14T03:18:28.088Z,2.50
2017-12-14T03:19:02.528Z,2.50
2017-12-14T03:19:36.184Z,2.50
2017-12-14T03:20:10.605Z,2.50
2017-12-14T03:20:44.266Z,2.40
2017-12-14T03:21:18.689Z,2.40
2017-12-14T03:21:52.361Z,2.40
2017-12-14T03:22:26.014Z,2.40
2017-12-14T03:22:59.342Z,2.40
2017-12-14T03:23:33.758Z,2.40
2017-12-14T03:24:08.202Z,2.40
2017-12-14T03:24:41.854Z,2.40
2017-12-14T03:25:16.282Z,2.40
2017-12-14T03:25:49.930Z,2.40
2017-12-14T03:26:23.583Z,2.40
2017-12-14T03:26:57.242Z,2.40
2017-12-14T03:27:30.890Z,2.40
2017-12-14T03:28:04.547Z,2.40
2017-12-14T03:28:38.203Z,2.40
2017-12-14T03:29:12.180Z,2.40
2017-12-14T03:29:46.662Z,2.40
2017-12-14T03:30:20.320Z,2.30
2017-12-14T03:30:53.987Z,2.40
2017-12-14T03:31:27.643Z,2.40
2017-12-14T03:32:01.306Z,2.30
2017-12-14T03:32:34.987Z,2.30
2017-12-14T03:33:08.637Z,2.40
2017-12-14T03:33:43.077Z,2.30
2017-12-14T03:34:16.782Z,2.30
2017-12-14T03:34:50.450Z,2.30
2017-12-14T03:35:24.096Z,2.30
2017-12-14T03:35:58.518Z,2.30
2017-12-14T03:36:32.949Z,2.30
2017-12-14T03:37:06.603Z,2.30
2017-12-14T03:37:41.015Z,2.30
2017-12-14T03:38:15.443Z,2.30
2017-12-14T03:38:49.122Z,2.30
2017-12-14T03:39:22.807Z,2.40
2017-12-14T03:39:57.232Z,2.30
2017-12-14T03:40:30.899Z,2.30
2017-12-14T03:41:05.338Z,2.30
2017-12-14T03:41:38.995Z,2.30
2017-12-14T03:42:13.433Z,2.30
2017-12-14T03:42:47.078Z,2.30
2017-12-14T03:43:20.760Z,2.30
2017-12-14T03:43:54.607Z,2.30
2017-12-14T03:44:28.279Z,2.30
2017-12-14T03:45:01.940Z,2.30
2017-12-14T03:45:35.595Z,2.30
2017-12-14T03:46:08.931Z,2.30
2017-12-14T03:46:42.590Z,2.30
2017-12-14T03:47:16.241Z,2.30
2017-12-14T03:47:49.222Z,2.30
2017-12-14T03:48:22.226Z,2.30
2017-12-14T03:48:55.534Z,2.30
2017-12-14T03:49:29.657Z,2.30
2017-12-14T03:50:02.974Z,2.30
2017-12-14T03:50:36.647Z,2.30
2017-12-14T03:51:09.980Z,2.30
2017-12-14T03:51:43.769Z,2.30
2017-12-14T03:52:17.530Z,2.40
2017-12-14T03:52:50.516Z,2.40
2017-12-14T03:53:23.506Z,2.40
2017-12-14T03:53:56.686Z,2.40
2017-12-14T03:54:30.754Z,2.40
2017-12-14T03:55:04.412Z,2.40
2017-12-14T03:55:38.074Z,2.40
2017-12-14T03:56:11.726Z,2.40
2017-12-14T03:56:45.633Z,2.40
2017-12-14T03:57:19.424Z,2.40
2017-12-14T03:57:53.074Z,2.30
2017-12-14T03:58:26.722Z,2.40
2017-12-14T03:59:01.138Z,2.40
2017-12-14T03:59:35.603Z,2.40
2017-12-14T04:00:09.306Z,2.40
2017-12-14T04:00:42.986Z,2.40
2017-12-14T04:01:16.634Z,2.40
2017-12-14T04:01:50.293Z,2.40
2017-12-14T04:02:24.717Z,2.40
2017-12-14T04:02:58.372Z,2.40
2017-12-14T04:03:32.022Z,2.30
2017-12-14T04:04:05.695Z,2.40
2017-12-14T04:04:39.391Z,2.30
2017-12-14T04:05:13.066Z,2.40
2017-12-14T04:05:46.726Z,2.30
2017-12-14T04:06:20.406Z,2.40
2017-12-14T04:06:54.054Z,2.40
2017-12-14T04:07:27.707Z,2.30
2017-12-14T04:08:01.460Z,2.40
2017-12-14T04:08:34.775Z,2.40
2017-12-14T04:09:08.533Z,2.30
2017-12-14T04:09:41.547Z,2.30
2017-12-14T04:10:15.307Z,2.30
2017-12-14T04:10:48.639Z,2.30
2017-12-14T04:11:21.625Z,2.40
2017-12-14T04:11:55.203Z,2.30
2017-12-14T04:12:28.186Z,2.30
2017-12-14T04:13:01.178Z,2.30
2017-12-14T04:13:34.494Z,2.30
2017-12-14T04:14:07.492Z,2.30
2017-12-14T04:14:40.512Z,2.30
2017-12-14T04:15:13.779Z,2.30
2017-12-14T04:15:47.138Z,2.30
2017-12-14T04:16:20.126Z,2.30
2017-12-14T04:16:53.465Z,2.30
2017-12-14T04:17:27.551Z,2.30
2017-12-14T04:18:00.530Z,2.30
2017-12-14T04:18:33.855Z,2.30
2017-12-14T04:19:06.840Z,2.20
2017-12-14T04:19:39.857Z,2.20
2017-12-14T04:20:12.897Z,2.20
2017-12-14T04:20:45.930Z,2.20
2017-12-14T04:21:19.683Z,2.20
2017-12-14T04:21:52.686Z,2.20
2017-12-14T04:22:26.446Z,2.20
2017-12-14T04:22:59.780Z,2.20
2017-12-14T04:23:32.770Z,2.20
2017-12-14T04:24:05.833Z,2.20
2017-12-14T04:24:39.162Z,2.10
2017-12-14T04:25:12.153Z,2.20
2017-12-14T04:25:45.484Z,2.20
2017-12-14T04:26:18.834Z,2.10
2017-12-14T04:26:53.271Z,2.10
2017-12-14T04:27:26.604Z,2.10
2017-12-14T04:28:00.368Z,2.10
2017-12-14T04:28:33.368Z,2.10
2017-12-14T04:29:07.487Z,2.10
2017-12-14T04:29:41.928Z,2.10
2017-12-14T04:30:14.934Z,2.10
2017-12-14T04:30:48.265Z,2.10
2017-12-14T04:31:22.257Z,2.10
2017-12-14T04:31:55.596Z,2.10
2017-12-14T04:32:28.585Z,2.10
2017-12-14T04:33:02.354Z,2.10
2017-12-14T04:33:36.008Z,2.10
2017-12-14T04:34:09.003Z,2.10
2017-12-14T04:34:42.000Z,2.10
2017-12-14T04:35:15.009Z,2.10
2017-12-14T04:35:48.035Z,2.10
2017-12-14T04:36:21.014Z,2.00
2017-12-14T04:36:54.054Z,2.00
2017-12-14T04:37:27.066Z,2.00
2017-12-14T04:38:00.394Z,2.00
2017-12-14T04:38:33.382Z,2.00
2017-12-14T04:39:07.034Z,2.00
2017-12-14T04:39:40.807Z,2.00
2017-12-14T04:40:13.801Z,2.00
2017-12-14T04:40:47.556Z,2.00
2017-12-14T04:41:20.885Z,2.00
2017-12-14T04:41:54.569Z,2.00
2017-12-14T04:42:28.663Z,2.00
2017-12-14T04:43:02.420Z,2.00
2017-12-14T04:43:35.739Z,2.00
2017-12-14T04:44:09.516Z,2.00
2017-12-14T04:44:42.502Z,2.00
2017-12-14T04:45:16.251Z,2.00
2017-12-14T04:45:49.654Z,2.00
2017-12-14T04:46:22.635Z,2.00
2017-12-14T04:46:55.983Z,2.00
2017-12-14T04:47:29.300Z,2.00
2017-12-14T04:48:02.286Z,2.00
2017-12-14T04:48:36.045Z,2.00
2017-12-14T04:49:09.050Z,2.00
2017-12-14T04:49:43.151Z,2.00
2017-12-14T04:50:16.910Z,1.90
2017-12-14T04:50:49.897Z,2.00
2017-12-14T04:51:22.891Z,2.00
2017-12-14T04:51:56.681Z,2.00
2017-12-14T04:52:30.431Z,2.00
2017-12-14T04:53:03.754Z,2.00
2017-12-14T04:53:37.839Z,1.90
2017-12-14T04:54:11.238Z,1.90
2017-12-14T04:54:45.398Z,1.90
2017-12-14T04:55:19.285Z,1.90
2017-12-14T04:55:52.270Z,1.90
2017-12-14T04:56:25.265Z,1.90
2017-12-14T04:56:58.647Z,1.90
2017-12-14T04:57:32.313Z,1.90
2017-12-14T04:58:05.627Z,1.90
2017-12-14T04:58:39.741Z,1.90
2017-12-14T04:59:13.494Z,1.90
2017-12-14T04:59:46.478Z,1.90
2017-12-14T05:00:19.473Z,1.90
2017-12-14T05:00:53.571Z,1.90
2017-12-14T05:01:27.329Z,1.90
2017-12-14T05:02:00.679Z,1.90
2017-12-14T05:02:33.990Z,1.90
2017-12-14T05:03:07.331Z,1.90
2017-12-14T05:03:40.994Z,1.90
2017-12-14T05:04:15.426Z,1.90
2017-12-14T05:04:48.752Z,2.00
2017-12-14T05:05:22.092Z,1.90
2017-12-14T05:05:55.082Z,2.00
2017-12-14T05:06:28.087Z,2.00
2017-12-14T05:07:01.435Z,2.00
2017-12-14T05:07:34.871Z,2.00
2017-12-14T05:08:08.642Z,2.00
2017-12-14T05:08:41.638Z,2.00
2017-12-14T05:09:15.395Z,2.00
2017-12-14T05:09:49.071Z,2.00
2017-12-14T05:10:22.402Z,2.00
2017-12-14T05:10:56.166Z,2.00
2017-12-14T05:11:29.970Z,2.00
2017-12-14T05:12:02.983Z,2.00
2017-12-14T05:12:36.080Z,2.00
2017-12-14T05:13:09.554Z,2.10
2017-12-14T05:13:43.211Z,2.10
2017-12-14T05:14:16.958Z,2.10
2017-12-14T05:14:50.287Z,2.10
2017-12-14T05:15:24.044Z,2.10
2017-12-14T05:15:57.397Z,2.10
2017-12-14T05:16:30.728Z,2.10
2017-12-14T05:17:04.522Z,2.10
2017-12-14T05:17:37.503Z,2.10
2017-12-14T05:18:11.287Z,2.20
2017-12-14T05:18:44.302Z,2.10
2017-12-14T05:19:17.307Z,2.10
2017-12-14T05:19:50.614Z,2.10
2017-12-14T05:20:24.360Z,2.20
2017-12-14T05:20:57.357Z,2.20
2017-12-14T05:21:30.682Z,2.20
2017-12-14T05:22:04.478Z,2.20
2017-12-14T05:22:37.475Z,2.20
2017-12-14T05:23:10.812Z,2.20
2017-12-14T05:23:44.565Z,2.10
2017-12-14T05:24:17.886Z,2.10
2017-12-14T05:24:52.003Z,2.10
2017-12-14T05:25:24.988Z,2.10
2017-12-14T05:25:58.306Z,2.10
2017-12-14T05:26:31.310Z,2.10
2017-12-14T05:27:05.084Z,2.10
2017-12-14T05:27:38.402Z,2.10
2017-12-14T05:28:12.152Z,2.10
2017-12-14T05:28:45.207Z,2.10
2017-12-14T05:29:18.200Z,2.10
2017-12-14T05:29:51.203Z,2.10
2017-12-14T05:30:24.966Z,2.20
2017-12-14T05:30:57.960Z,2.20
2017-12-14T05:31:30.954Z,2.20
2017-12-14T05:32:06.170Z,2.20
2017-12-14T05:32:39.945Z,2.20
2017-12-14T05:33:13.027Z,2.20
2017-12-14T05:33:46.106Z,2.20
2017-12-14T05:34:19.090Z,2.20
2017-12-14T05:34:52.842Z,2.20
2017-12-14T05:35:26.494Z,2.20
2017-12-14T05:35:59.490Z,2.20
2017-12-14T05:36:32.809Z,2.20
2017-12-14T05:37:05.827Z,2.20
2017-12-14T05:37:39.172Z,2.20
2017-12-14T05:38:13.598Z,2.30
2017-12-14T05:38:46.578Z,2.30
2017-12-14T05:39:19.566Z,2.30
2017-12-14T05:39:52.566Z,2.30
2017-12-14T05:40:25.577Z,2.30
2017-12-14T05:40:59.667Z,2.30
2017-12-14T05:41:33.429Z,2.30
2017-12-14T05:42:06.421Z,2.30
2017-12-14T05:42:39.803Z,2.30
2017-12-14T05:43:12.793Z,2.30
2017-12-14T05:43:46.549Z,2.30
2017-12-14T05:44:19.587Z,2.30
2017-12-14T05:44:52.584Z,2.30
2017-12-14T05:45:25.597Z,2.40
2017-12-14T05:45:59.696Z,2.40
2017-12-14T05:46:33.031Z,2.40
2017-12-14T05:47:06.023Z,2.40
2017-12-14T05:47:39.064Z,2.40
2017-12-14T05:48:12.064Z,2.40
2017-12-14T05:48:45.064Z,2.40
2017-12-14T05:49:18.073Z,2.40
2017-12-14T05:49:51.735Z,2.40
2017-12-14T05:50:24.727Z,2.40
2017-12-14T05:50:58.489Z,2.40
2017-12-14T05:51:31.811Z,2.40
2017-12-14T05:52:04.798Z,2.40
2017-12-14T05:52:38.116Z,2.50
2017-12-14T05:53:11.127Z,2.50
2017-12-14T05:53:44.891Z,2.50
2017-12-14T05:54:17.878Z,2.50
2017-12-14T05:54:50.875Z,2.50
2017-12-14T05:55:24.626Z,2.50
2017-12-14T05:55:57.937Z,2.50
2017-12-14T05:56:31.708Z,2.50
2017-12-14T05:57:04.701Z,2.50
2017-12-14T05:57:38.458Z,2.50
2017-12-14T05:58:11.516Z,2.60
2017-12-14T05:58:44.506Z,2.60
2017-12-14T05:59:17.506Z,2.60
2017-12-14T05:59:50.496Z,2.60
2017-12-14T06:00:24.250Z,2.60
2017-12-14T06:00:57.246Z,2.60
2017-12-14T06:01:30.590Z,2.60
2017-12-14T06:02:03.587Z,2.60
2017-12-14T06:02:36.637Z,2.60
2017-12-14T06:03:09.959Z,2.60
2017-12-14T06:03:42.971Z,2.70
2017-12-14T06:04:15.963Z,2.70
2017-12-14T06:04:48.954Z,2.70
2017-12-14T06:05:21.946Z,2.70
2017-12-14T06:05:54.947Z,2.70
2017-12-14T06:06:27.950Z,2.70
2017-12-14T06:07:00.957Z,2.70
2017-12-14T06:07:34.711Z,2.80
2017-12-14T06:08:07.701Z,2.80
2017-12-14T06:08:41.031Z,2.80
2017-12-14T06:09:14.231Z,2.80
2017-12-14T06:09:47.222Z,2.80
2017-12-14T06:10:20.232Z,2.90
2017-12-14T06:10:53.228Z,2.90
2017-12-14T06:11:27.334Z,2.90
2017-12-14T06:12:01.457Z,2.90
2017-12-14T06:12:34.456Z,2.90
2017-12-14T06:13:07.465Z,2.90
2017-12-14T06:13:40.456Z,2.90
2017-12-14T06:14:14.276Z,2.90
2017-12-14T06:14:47.270Z,2.90
2017-12-14T06:15:20.270Z,3.00
2017-12-14T06:15:53.251Z,3.00
2017-12-14T06:16:26.571Z,3.00
2017-12-14T06:16:59.572Z,3.00
2017-12-14T06:17:32.570Z,3.00
2017-12-14T06:18:05.558Z,3.00
2017-12-14T06:18:39.330Z,3.00
2017-12-14T06:19:12.343Z,3.00
2017-12-14T06:19:46.130Z,3.00
2017-12-14T06:20:20.215Z,3.10
2017-12-14T06:20:53.971Z,3.10
2017-12-14T06:21:26.959Z,3.10
2017-12-14T06:21:59.951Z,3.10
2017-12-14T06:22:34.616Z,3.10
2017-12-14T06:23:08.689Z,3.20
2017-12-14T06:23:41.692Z,3.20
2017-12-14T06:24:14.676Z,3.20
2017-12-14T06:24:47.695Z,3.20
2017-12-14T06:25:21.450Z,3.20
2017-12-14T06:25:55.168Z,3.20
2017-12-14T06:26:30.331Z,3.20
2017-12-14T06:27:03.936Z,3.30
2017-12-14T06:27:36.947Z,3.30
2017-12-14T06:28:09.954Z,3.30
2017-12-14T06:28:43.415Z,3.30
2017-12-14T06:29:16.589Z,3.30
2017-12-14T06:29:49.960Z,3.30
2017-12-14T06:30:22.955Z,3.30
2017-12-14T06:30:57.042Z,3.40
2017-12-14T06:31:30.391Z,3.30
2017-12-14T06:32:03.386Z,3.40
2017-12-14T06:32:36.712Z,3.40
2017-12-14T06:33:09.723Z,3.40
2017-12-14T06:33:43.306Z,3.40
2017-12-14T06:34:16.416Z,3.40
2017-12-14T06:34:50.206Z,3.40
2017-12-14T06:35:23.322Z,3.40
2017-12-14T06:35:56.651Z,3.40
2017-12-14T06:36:29.654Z,3.40
2017-12-14T06:37:03.985Z,3.50
2017-12-14T06:37:37.648Z,3.40
2017-12-14T06:38:11.417Z,3.50
2017-12-14T06:38:44.503Z,3.50
2017-12-14T06:39:17.505Z,3.50
2017-12-14T06:39:50.594Z,3.50
2017-12-14T06:40:23.620Z,3.50
2017-12-14T06:40:56.605Z,3.50
2017-12-14T06:41:30.692Z,3.60
2017-12-14T06:42:03.691Z,3.50
2017-12-14T06:42:37.784Z,3.60
2017-12-14T06:43:11.538Z,3.60
2017-12-14T06:43:44.527Z,3.60
2017-12-14T06:44:17.528Z,3.60
2017-12-14T06:44:51.981Z,3.60
2017-12-14T06:45:24.970Z,3.60
2017-12-14T06:45:58.369Z,3.60
2017-12-14T06:46:32.473Z,3.60
2017-12-14T06:47:05.478Z,3.60
2017-12-14T06:47:38.499Z,3.60
2017-12-14T06:48:11.514Z,3.60
2017-12-14T06:48:45.284Z,3.60
2017-12-14T06:49:18.318Z,3.60
2017-12-14T06:49:52.578Z,3.60
2017-12-14T06:50:26.341Z,3.60
2017-12-14T06:50:59.337Z,3.60
2017-12-14T06:51:33.101Z,3.60
2017-12-14T06:52:06.430Z,3.60
2017-12-14T06:52:39.756Z,3.60
2017-12-14T06:53:13.074Z,3.60
2017-12-14T06:53:46.839Z,3.60
2017-12-14T06:54:20.186Z,3.60
2017-12-14T06:54:53.502Z,3.60
2017-12-14T06:55:26.832Z,3.60
2017-12-14T06:56:00.431Z,3.60
2017-12-14T06:56:33.427Z,3.60
2017-12-14T06:57:06.414Z,3.60
2017-12-14T06:57:39.446Z,3.60
2017-12-14T06:58:13.170Z,3.60
2017-12-14T06:58:46.157Z,3.60
2017-12-14T06:59:19.155Z,3.70
2017-12-14T06:59:52.962Z,3.70
2017-12-14T07:00:26.301Z,3.70
2017-12-14T07:00:59.297Z,3.70
2017-12-14T07:01:32.325Z,3.70
2017-12-14T07:02:05.319Z,3.70
2017-12-14T07:02:38.307Z,3.70
2017-12-14T07:03:23.060Z,3.70
2017-12-14T07:03:56.387Z,3.70
2017-12-14T07:04:29.391Z,3.70
2017-12-14T07:05:02.745Z,3.70
2017-12-14T07:05:35.780Z,3.70
2017-12-14T07:06:08.778Z,3.70
2017-12-14T07:06:42.113Z,3.70
2017-12-14T07:07:15.111Z,3.70
2017-12-14T07:07:50.082Z,3.70
2017-12-14T07:08:23.075Z,3.70
2017-12-14T07:08:56.733Z,3.70
2017-12-14T07:09:29.729Z,3.70
2017-12-14T07:10:02.761Z,3.70
2017-12-14T07:10:35.755Z,3.70
2017-12-14T07:11:08.743Z,3.70
2017-12-14T07:11:42.082Z,3.70
2017-12-14T07:12:15.830Z,3.70
2017-12-14T07:12:49.484Z,3.70
2017-12-14T07:13:22.470Z,3.70
2017-12-14T07:13:55.451Z,3.70
2017-12-14T07:14:28.440Z,3.70
2017-12-14T07:15:01.438Z,3.70
2017-12-14T07:15:34.470Z,3.70
2017-12-14T07:16:07.829Z,3.80
2017-12-14T07:16:41.037Z,3.80
2017-12-14T07:17:14.970Z,3.80
2017-12-14T07:17:47.960Z,3.80
2017-12-14T07:18:21.752Z,3.80
2017-12-14T07:18:55.511Z,3.80
2017-12-14T07:19:28.827Z,3.80
2017-12-14T07:20:02.919Z,3.80
2017-12-14T07:20:37.007Z,3.90
2017-12-14T07:21:09.994Z,3.80
2017-12-14T07:21:43.756Z,3.90
2017-12-14T07:22:17.095Z,3.90
2017-12-14T07:22:50.425Z,3.90
2017-12-14T07:23:23.424Z,3.90
2017-12-14T07:23:57.185Z,3.90
2017-12-14T07:24:30.531Z,3.90
2017-12-14T07:25:03.528Z,3.90
2017-12-14T07:25:36.907Z,3.90
2017-12-14T07:26:09.892Z,4.00
2017-12-14T07:26:43.240Z,4.00
2017-12-14T07:27:16.292Z,4.00